Mayetta, Kansas
Current Conditions -  °F | °C
As of 4:53 PM on Tuesday 25 Nov 2014 (Local Time) from KTOP Reporting Station
Clear Clear  
Wind Chill: 40°   Ceiling: Unl
Heat Index: 44°   Visibility: 10mi
Dew Point: 24°   Wind: 7mph
Humidity: 45%   Direction: 160°SSE
Pressure: 30.06"   Gusts: NA
Location:  39.34°N, 95.72°W
Report Text: KTOP 252253Z 16006KT 10SM CLR 07/M04 A3006 RMK AO2 SLP186 T00671044
Loading
Personal Weather Stations






























Interactive Weather Map New forecast layout! Learn more

10-Day Weather Forecast

Advertisements
Track Severe Weather on mobile